sensor_id;sensor_type;location;lat;lon;timestamp;P1;durP1;ratioP1;P2;durP2;ratioP2
11313;SDS011;5712;48.858;9.206;2023-02-28T00:01:13;3.20;;;2.40;;
11313;SDS011;5712;48.858;9.206;2023-02-28T00:03:40;3.33;;;2.70;;
11313;SDS011;5712;48.858;9.206;2023-02-28T00:06:07;3.70;;;2.70;;
11313;SDS011;5712;48.858;9.206;2023-02-28T00:08:35;3.97;;;3.00;;
11313;SDS011;5712;48.858;9.206;2023-02-28T00:11:03;4.13;;;2.60;;
11313;SDS011;5712;48.858;9.206;2023-02-28T00:13:31;3.00;;;2.70;;
11313;SDS011;5712;48.858;9.206;2023-02-28T00:16:00;2.77;;;2.40;;
11313;SDS011;5712;48.858;9.206;2023-02-28T00:18:27;4.13;;;3.00;;
11313;SDS011;5712;48.858;9.206;2023-02-28T00:20:54;3.20;;;2.50;;
11313;SDS011;5712;48.858;9.206;2023-02-28T00:23:20;4.40;;;2.73;;
11313;SDS011;5712;48.858;9.206;2023-02-28T00:25:47;4.77;;;3.00;;
11313;SDS011;5712;48.858;9.206;2023-02-28T00:28:15;5.23;;;3.00;;
11313;SDS011;5712;48.858;9.206;2023-02-28T00:30:41;4.10;;;3.20;;
11313;SDS011;5712;48.858;9.206;2023-02-28T00:33:08;3.40;;;3.10;;
11313;SDS011;5712;48.858;9.206;2023-02-28T00:35:35;4.10;;;3.00;;
11313;SDS011;5712;48.858;9.206;2023-02-28T00:38:01;3.50;;;2.87;;
11313;SDS011;5712;48.858;9.206;2023-02-28T00:40:28;3.30;;;2.73;;
11313;SDS011;5712;48.858;9.206;2023-02-28T00:42:55;3.23;;;2.93;;
11313;SDS011;5712;48.858;9.206;2023-02-28T00:45:23;3.50;;;3.00;;
11313;SDS011;5712;48.858;9.206;2023-02-28T00:47:49;3.63;;;3.20;;
11313;SDS011;5712;48.858;9.206;2023-02-28T00:50:16;4.90;;;3.20;;
11313;SDS011;5712;48.858;9.206;2023-02-28T00:52:43;3.90;;;3.07;;
11313;SDS011;5712;48.858;9.206;2023-02-28T00:55:09;3.90;;;3.17;;
11313;SDS011;5712;48.858;9.206;2023-02-28T00:57:36;3.77;;;3.20;;
11313;SDS011;5712;48.858;9.206;2023-02-28T01:00:03;3.77;;;3.20;;
11313;SDS011;5712;48.858;9.206;2023-02-28T01:02:32;3.83;;;3.10;;
11313;SDS011;5712;48.858;9.206;2023-02-28T01:04:59;4.67;;;3.70;;
11313;SDS011;5712;48.858;9.206;2023-02-28T01:07:25;4.40;;;3.43;;
11313;SDS011;5712;48.858;9.206;2023-02-28T01:09:52;4.23;;;3.63;;
11313;SDS011;5712;48.858;9.206;2023-02-28T01:12:18;4.53;;;3.60;;
11313;SDS011;5712;48.858;9.206;2023-02-28T01:14:45;5.07;;;3.70;;
11313;SDS011;5712;48.858;9.206;2023-02-28T01:17:11;5.37;;;3.47;;
11313;SDS011;5712;48.858;9.206;2023-02-28T01:19:39;5.10;;;3.33;;
11313;SDS011;5712;48.858;9.206;2023-02-28T01:22:06;4.00;;;3.60;;
11313;SDS011;5712;48.858;9.206;2023-02-28T01:24:32;4.67;;;3.40;;
11313;SDS011;5712;48.858;9.206;2023-02-28T01:26:59;4.70;;;3.67;;
11313;SDS011;5712;48.858;9.206;2023-02-28T01:29:25;6.20;;;3.87;;
11313;SDS011;5712;48.858;9.206;2023-02-28T01:31:52;4.67;;;3.90;;
11313;SDS011;5712;48.858;9.206;2023-02-28T01:34:18;4.90;;;3.70;;
11313;SDS011;5712;48.858;9.206;2023-02-28T01:36:46;5.23;;;3.60;;
11313;SDS011;5712;48.858;9.206;2023-02-28T01:39:13;5.10;;;3.83;;
11313;SDS011;5712;48.858;9.206;2023-02-28T01:41:39;5.93;;;3.90;;
11313;SDS011;5712;48.858;9.206;2023-02-28T01:44:53;4.17;;;3.70;;
11313;SDS011;5712;48.858;9.206;2023-02-28T01:47:11;5.43;;;3.90;;
11313;SDS011;5712;48.858;9.206;2023-02-28T01:49:38;4.87;;;3.83;;
11313;SDS011;5712;48.858;9.206;2023-02-28T01:52:06;5.10;;;4.30;;
11313;SDS011;5712;48.858;9.206;2023-02-28T01:54:34;4.10;;;3.70;;
11313;SDS011;5712;48.858;9.206;2023-02-28T01:57:01;5.27;;;3.37;;
11313;SDS011;5712;48.858;9.206;2023-02-28T01:59:32;7.60;;;4.23;;
11313;SDS011;5712;48.858;9.206;2023-02-28T02:02:05;5.80;;;4.10;;
11313;SDS011;5712;48.858;9.206;2023-02-28T02:04:34;6.80;;;4.17;;
11313;SDS011;5712;48.858;9.206;2023-02-28T02:07:04;6.87;;;4.23;;
11313;SDS011;5712;48.858;9.206;2023-02-28T02:09:33;4.83;;;4.10;;
11313;SDS011;5712;48.858;9.206;2023-02-28T02:11:59;5.27;;;3.90;;
11313;SDS011;5712;48.858;9.206;2023-02-28T02:14:40;4.40;;;4.00;;
11313;SDS011;5712;48.858;9.206;2023-02-28T02:17:20;4.10;;;3.70;;
11313;SDS011;5712;48.858;9.206;2023-02-28T02:20:06;5.97;;;4.40;;
11313;SDS011;5712;48.858;9.206;2023-02-28T02:25:52;5.00;;;3.97;;
11313;SDS011;5712;48.858;9.206;2023-02-28T02:31:25;4.60;;;3.67;;
11313;SDS011;5712;48.858;9.206;2023-02-28T02:37:04;7.03;;;4.27;;
11313;SDS011;5712;48.858;9.206;2023-02-28T02:39:42;5.67;;;3.90;;
11313;SDS011;5712;48.858;9.206;2023-02-28T02:42:16;6.07;;;3.90;;
11313;SDS011;5712;48.858;9.206;2023-02-28T02:44:48;5.23;;;4.00;;
11313;SDS011;5712;48.858;9.206;2023-02-28T02:47:19;5.80;;;4.00;;
11313;SDS011;5712;48.858;9.206;2023-02-28T02:49:51;6.20;;;4.00;;
11313;SDS011;5712;48.858;9.206;2023-02-28T02:52:22;5.23;;;4.17;;
11313;SDS011;5712;48.858;9.206;2023-02-28T02:54:55;4.47;;;4.00;;
11313;SDS011;5712;48.858;9.206;2023-02-28T02:57:25;7.57;;;4.40;;
11313;SDS011;5712;48.858;9.206;2023-02-28T02:59:56;5.30;;;4.40;;
11313;SDS011;5712;48.858;9.206;2023-02-28T03:02:23;5.67;;;4.20;;
11313;SDS011;5712;48.858;9.206;2023-02-28T03:04:53;6.80;;;4.33;;
11313;SDS011;5712;48.858;9.206;2023-02-28T03:07:25;8.13;;;4.33;;
11313;SDS011;5712;48.858;9.206;2023-02-28T03:09:52;5.00;;;3.80;;
11313;SDS011;5712;48.858;9.206;2023-02-28T03:12:19;6.43;;;4.87;;
11313;SDS011;5712;48.858;9.206;2023-02-28T03:14:55;5.80;;;4.40;;
11313;SDS011;5712;48.858;9.206;2023-02-28T03:17:34;6.80;;;4.40;;
11313;SDS011;5712;48.858;9.206;2023-02-28T03:20:17;5.20;;;4.40;;
11313;SDS011;5712;48.858;9.206;2023-02-28T03:22:57;6.83;;;4.67;;
11313;SDS011;5712;48.858;9.206;2023-02-28T03:25:35;7.13;;;5.07;;
11313;SDS011;5712;48.858;9.206;2023-02-28T03:28:09;5.00;;;3.93;;
11313;SDS011;5712;48.858;9.206;2023-02-28T03:30:44;5.87;;;4.30;;
11313;SDS011;5712;48.858;9.206;2023-02-28T03:33:19;6.03;;;4.40;;
11313;SDS011;5712;48.858;9.206;2023-02-28T03:35:52;4.77;;;4.17;;
11313;SDS011;5712;48.858;9.206;2023-02-28T03:38:31;7.00;;;4.53;;
11313;SDS011;5712;48.858;9.206;2023-02-28T03:41:05;5.00;;;4.50;;
11313;SDS011;5712;48.858;9.206;2023-02-28T03:43:38;5.33;;;4.47;;
11313;SDS011;5712;48.858;9.206;2023-02-28T03:46:08;5.20;;;4.27;;
11313;SDS011;5712;48.858;9.206;2023-02-28T03:48:40;6.97;;;4.53;;
11313;SDS011;5712;48.858;9.206;2023-02-28T03:51:12;5.47;;;4.60;;
11313;SDS011;5712;48.858;9.206;2023-02-28T03:53:43;7.30;;;4.37;;
11313;SDS011;5712;48.858;9.206;2023-02-28T03:56:12;6.17;;;4.50;;
11313;SDS011;5712;48.858;9.206;2023-02-28T03:58:44;7.37;;;4.67;;
11313;SDS011;5712;48.858;9.206;2023-02-28T04:01:16;5.90;;;4.73;;
11313;SDS011;5712;48.858;9.206;2023-02-28T04:03:48;6.77;;;4.77;;
11313;SDS011;5712;48.858;9.206;2023-02-28T04:06:18;6.27;;;4.80;;
11313;SDS011;5712;48.858;9.206;2023-02-28T04:08:46;5.47;;;4.47;;
11313;SDS011;5712;48.858;9.206;2023-02-28T04:11:18;4.90;;;4.27;;
11313;SDS011;5712;48.858;9.206;2023-02-28T04:13:47;4.83;;;4.30;;
11313;SDS011;5712;48.858;9.206;2023-02-28T04:16:14;6.27;;;4.40;;
11313;SDS011;5712;48.858;9.206;2023-02-28T04:18:41;5.80;;;4.43;;
11313;SDS011;5712;48.858;9.206;2023-02-28T04:21:09;5.43;;;4.50;;
11313;SDS011;5712;48.858;9.206;2023-02-28T04:23:38;6.73;;;4.50;;
11313;SDS011;5712;48.858;9.206;2023-02-28T04:26:04;5.53;;;4.40;;
11313;SDS011;5712;48.858;9.206;2023-02-28T04:28:31;6.03;;;4.60;;
11313;SDS011;5712;48.858;9.206;2023-02-28T04:30:58;7.07;;;4.70;;
11313;SDS011;5712;48.858;9.206;2023-02-28T04:33:26;8.93;;;4.67;;
11313;SDS011;5712;48.858;9.206;2023-02-28T04:35:59;6.07;;;4.80;;
11313;SDS011;5712;48.858;9.206;2023-02-28T04:38:27;7.97;;;4.53;;
11313;SDS011;5712;48.858;9.206;2023-02-28T04:40:57;6.67;;;4.73;;
11313;SDS011;5712;48.858;9.206;2023-02-28T04:43:25;5.60;;;5.03;;
11313;SDS011;5712;48.858;9.206;2023-02-28T04:45:52;8.30;;;4.47;;
11313;SDS011;5712;48.858;9.206;2023-02-28T04:48:21;6.80;;;5.07;;
11313;SDS011;5712;48.858;9.206;2023-02-28T04:50:48;7.20;;;4.87;;
11313;SDS011;5712;48.858;9.206;2023-02-28T04:53:14;6.13;;;4.77;;
11313;SDS011;5712;48.858;9.206;2023-02-28T04:55:41;7.07;;;4.40;;
11313;SDS011;5712;48.858;9.206;2023-02-28T04:58:09;6.93;;;4.37;;
11313;SDS011;5712;48.858;9.206;2023-02-28T05:00:35;7.63;;;5.40;;
11313;SDS011;5712;48.858;9.206;2023-02-28T05:03:02;7.90;;;5.20;;
11313;SDS011;5712;48.858;9.206;2023-02-28T05:05:28;6.10;;;4.83;;
11313;SDS011;5712;48.858;9.206;2023-02-28T05:07:55;8.27;;;4.73;;
11313;SDS011;5712;48.858;9.206;2023-02-28T05:10:22;7.97;;;5.50;;
11313;SDS011;5712;48.858;9.206;2023-02-28T05:12:49;6.33;;;5.10;;
11313;SDS011;5712;48.858;9.206;2023-02-28T05:15:16;7.77;;;4.97;;
11313;SDS011;5712;48.858;9.206;2023-02-28T05:17:43;6.73;;;5.37;;
11313;SDS011;5712;48.858;9.206;2023-02-28T05:20:10;6.47;;;4.80;;
11313;SDS011;5712;48.858;9.206;2023-02-28T05:22:38;7.57;;;4.70;;
11313;SDS011;5712;48.858;9.206;2023-02-28T05:25:05;7.83;;;4.90;;
11313;SDS011;5712;48.858;9.206;2023-02-28T05:27:32;6.80;;;5.03;;
11313;SDS011;5712;48.858;9.206;2023-02-28T05:29:59;8.27;;;5.13;;
11313;SDS011;5712;48.858;9.206;2023-02-28T05:32:29;6.30;;;4.80;;
11313;SDS011;5712;48.858;9.206;2023-02-28T05:34:56;6.17;;;4.93;;
11313;SDS011;5712;48.858;9.206;2023-02-28T05:37:22;6.87;;;5.13;;
11313;SDS011;5712;48.858;9.206;2023-02-28T05:39:49;7.60;;;5.80;;
11313;SDS011;5712;48.858;9.206;2023-02-28T05:42:15;9.23;;;5.33;;
11313;SDS011;5712;48.858;9.206;2023-02-28T05:44:42;8.90;;;5.47;;
11313;SDS011;5712;48.858;9.206;2023-02-28T05:47:08;6.20;;;4.80;;
11313;SDS011;5712;48.858;9.206;2023-02-28T05:49:36;6.57;;;4.83;;
11313;SDS011;5712;48.858;9.206;2023-02-28T05:52:03;6.93;;;5.10;;
11313;SDS011;5712;48.858;9.206;2023-02-28T05:54:30;7.00;;;5.70;;
11313;SDS011;5712;48.858;9.206;2023-02-28T05:56:56;6.77;;;4.73;;
11313;SDS011;5712;48.858;9.206;2023-02-28T05:59:23;8.90;;;5.87;;
11313;SDS011;5712;48.858;9.206;2023-02-28T06:01:50;6.73;;;4.97;;
11313;SDS011;5712;48.858;9.206;2023-02-28T06:04:19;9.90;;;5.07;;
11313;SDS011;5712;48.858;9.206;2023-02-28T06:06:48;6.97;;;5.23;;
11313;SDS011;5712;48.858;9.206;2023-02-28T06:09:15;8.80;;;5.27;;
11313;SDS011;5712;48.858;9.206;2023-02-28T06:11:42;7.13;;;5.27;;
11313;SDS011;5712;48.858;9.206;2023-02-28T06:14:13;8.73;;;5.70;;
11313;SDS011;5712;48.858;9.206;2023-02-28T06:16:41;8.00;;;5.87;;
11313;SDS011;5712;48.858;9.206;2023-02-28T06:19:08;8.27;;;5.83;;
11313;SDS011;5712;48.858;9.206;2023-02-28T06:21:35;7.47;;;5.63;;
11313;SDS011;5712;48.858;9.206;2023-02-28T06:24:04;7.30;;;5.70;;
11313;SDS011;5712;48.858;9.206;2023-02-28T06:26:31;7.97;;;5.30;;
11313;SDS011;5712;48.858;9.206;2023-02-28T06:28:58;6.97;;;4.97;;
11313;SDS011;5712;48.858;9.206;2023-02-28T06:31:25;8.97;;;5.13;;
11313;SDS011;5712;48.858;9.206;2023-02-28T06:33:54;7.03;;;5.33;;
11313;SDS011;5712;48.858;9.206;2023-02-28T06:36:21;8.87;;;5.60;;
11313;SDS011;5712;48.858;9.206;2023-02-28T06:38:48;9.33;;;5.77;;
11313;SDS011;5712;48.858;9.206;2023-02-28T06:41:20;7.83;;;5.43;;
11313;SDS011;5712;48.858;9.206;2023-02-28T06:43:47;7.00;;;5.47;;
11313;SDS011;5712;48.858;9.206;2023-02-28T06:46:14;9.67;;;6.00;;
11313;SDS011;5712;48.858;9.206;2023-02-28T06:48:40;8.17;;;5.17;;
11313;SDS011;5712;48.858;9.206;2023-02-28T06:51:09;7.43;;;5.43;;
11313;SDS011;5712;48.858;9.206;2023-02-28T06:53:39;8.93;;;5.60;;
11313;SDS011;5712;48.858;9.206;2023-02-28T06:56:06;9.30;;;5.70;;
11313;SDS011;5712;48.858;9.206;2023-02-28T06:58:35;8.97;;;5.93;;
11313;SDS011;5712;48.858;9.206;2023-02-28T07:01:02;8.83;;;5.27;;
11313;SDS011;5712;48.858;9.206;2023-02-28T07:03:29;8.53;;;5.70;;
11313;SDS011;5712;48.858;9.206;2023-02-28T07:05:56;8.23;;;5.83;;
11313;SDS011;5712;48.858;9.206;2023-02-28T07:08:23;8.50;;;5.87;;
11313;SDS011;5712;48.858;9.206;2023-02-28T07:10:51;7.77;;;5.73;;
11313;SDS011;5712;48.858;9.206;2023-02-28T07:13:18;8.63;;;6.00;;
11313;SDS011;5712;48.858;9.206;2023-02-28T07:15:53;8.03;;;5.77;;
11313;SDS011;5712;48.858;9.206;2023-02-28T07:18:20;8.23;;;5.90;;
11313;SDS011;5712;48.858;9.206;2023-02-28T07:20:47;8.40;;;5.97;;
11313;SDS011;5712;48.858;9.206;2023-02-28T07:23:13;9.53;;;5.90;;
11313;SDS011;5712;48.858;9.206;2023-02-28T07:25:40;9.13;;;5.67;;
11313;SDS011;5712;48.858;9.206;2023-02-28T07:28:06;8.50;;;5.83;;
11313;SDS011;5712;48.858;9.206;2023-02-28T07:30:33;8.70;;;5.87;;
11313;SDS011;5712;48.858;9.206;2023-02-28T07:33:01;8.60;;;5.80;;
11313;SDS011;5712;48.858;9.206;2023-02-28T07:35:28;9.00;;;5.47;;
11313;SDS011;5712;48.858;9.206;2023-02-28T07:37:55;8.70;;;6.13;;
11313;SDS011;5712;48.858;9.206;2023-02-28T07:40:23;7.63;;;6.10;;
11313;SDS011;5712;48.858;9.206;2023-02-28T07:42:49;9.77;;;6.13;;
11313;SDS011;5712;48.858;9.206;2023-02-28T07:45:16;7.80;;;5.77;;
11313;SDS011;5712;48.858;9.206;2023-02-28T07:47:43;13.13;;;6.13;;
11313;SDS011;5712;48.858;9.206;2023-02-28T07:50:12;8.87;;;6.20;;
11313;SDS011;5712;48.858;9.206;2023-02-28T07:52:40;8.73;;;6.17;;
11313;SDS011;5712;48.858;9.206;2023-02-28T07:55:07;10.97;;;7.17;;
11313;SDS011;5712;48.858;9.206;2023-02-28T07:57:35;9.40;;;6.53;;
11313;SDS011;5712;48.858;9.206;2023-02-28T08:00:02;9.23;;;6.30;;
11313;SDS011;5712;48.858;9.206;2023-02-28T08:02:29;8.43;;;5.93;;
11313;SDS011;5712;48.858;9.206;2023-02-28T08:04:55;8.90;;;6.30;;
11313;SDS011;5712;48.858;9.206;2023-02-28T08:07:23;8.23;;;6.10;;
11313;SDS011;5712;48.858;9.206;2023-02-28T08:09:50;9.37;;;6.57;;
11313;SDS011;5712;48.858;9.206;2023-02-28T08:12:16;10.30;;;6.40;;
11313;SDS011;5712;48.858;9.206;2023-02-28T08:14:43;10.07;;;6.30;;
11313;SDS011;5712;48.858;9.206;2023-02-28T08:17:09;10.70;;;6.60;;
11313;SDS011;5712;48.858;9.206;2023-02-28T08:19:37;8.67;;;6.10;;
11313;SDS011;5712;48.858;9.206;2023-02-28T08:22:04;9.77;;;6.50;;
11313;SDS011;5712;48.858;9.206;2023-02-28T08:24:31;10.77;;;7.70;;
11313;SDS011;5712;48.858;9.206;2023-02-28T08:26:58;9.73;;;6.73;;
11313;SDS011;5712;48.858;9.206;2023-02-28T08:29:25;8.20;;;6.33;;
11313;SDS011;5712;48.858;9.206;2023-02-28T08:31:51;9.97;;;6.50;;
11313;SDS011;5712;48.858;9.206;2023-02-28T08:34:18;9.00;;;6.63;;
11313;SDS011;5712;48.858;9.206;2023-02-28T08:36:44;13.43;;;7.07;;
11313;SDS011;5712;48.858;9.206;2023-02-28T08:39:11;9.60;;;6.70;;
11313;SDS011;5712;48.858;9.206;2023-02-28T08:41:39;8.33;;;6.00;;
11313;SDS011;5712;48.858;9.206;2023-02-28T08:44:06;9.47;;;7.03;;
11313;SDS011;5712;48.858;9.206;2023-02-28T08:46:33;10.60;;;6.77;;
11313;SDS011;5712;48.858;9.206;2023-02-28T08:48:59;10.57;;;7.20;;
11313;SDS011;5712;48.858;9.206;2023-02-28T08:51:27;8.97;;;6.97;;
11313;SDS011;5712;48.858;9.206;2023-02-28T08:53:55;12.93;;;7.73;;
11313;SDS011;5712;48.858;9.206;2023-02-28T08:56:24;9.10;;;6.70;;
11313;SDS011;5712;48.858;9.206;2023-02-28T08:58:53;9.57;;;6.57;;
11313;SDS011;5712;48.858;9.206;2023-02-28T09:01:21;10.03;;;7.20;;
11313;SDS011;5712;48.858;9.206;2023-02-28T09:03:49;9.27;;;6.67;;
11313;SDS011;5712;48.858;9.206;2023-02-28T09:06:17;9.80;;;7.67;;
11313;SDS011;5712;48.858;9.206;2023-02-28T09:08:45;11.73;;;7.20;;
11313;SDS011;5712;48.858;9.206;2023-02-28T09:11:12;11.07;;;7.30;;
11313;SDS011;5712;48.858;9.206;2023-02-28T09:13:38;9.90;;;7.13;;
11313;SDS011;5712;48.858;9.206;2023-02-28T09:16:08;11.63;;;7.70;;
11313;SDS011;5712;48.858;9.206;2023-02-28T09:18:37;9.83;;;7.27;;
11313;SDS011;5712;48.858;9.206;2023-02-28T09:21:04;10.07;;;7.10;;
11313;SDS011;5712;48.858;9.206;2023-02-28T09:23:31;10.50;;;7.03;;
11313;SDS011;5712;48.858;9.206;2023-02-28T09:25:58;10.80;;;8.40;;
11313;SDS011;5712;48.858;9.206;2023-02-28T09:28:24;10.30;;;7.60;;
11313;SDS011;5712;48.858;9.206;2023-02-28T09:30:52;10.87;;;7.47;;
11313;SDS011;5712;48.858;9.206;2023-02-28T09:33:21;10.37;;;7.20;;
11313;SDS011;5712;48.858;9.206;2023-02-28T09:35:48;9.57;;;6.87;;
11313;SDS011;5712;48.858;9.206;2023-02-28T09:38:15;10.57;;;7.17;;
11313;SDS011;5712;48.858;9.206;2023-02-28T09:40:45;9.83;;;6.87;;
11313;SDS011;5712;48.858;9.206;2023-02-28T09:43:15;10.83;;;7.73;;
11313;SDS011;5712;48.858;9.206;2023-02-28T09:45:46;9.17;;;6.97;;
11313;SDS011;5712;48.858;9.206;2023-02-28T09:48:17;10.80;;;7.47;;
11313;SDS011;5712;48.858;9.206;2023-02-28T09:50:49;11.67;;;7.33;;
11313;SDS011;5712;48.858;9.206;2023-02-28T09:53:19;9.97;;;7.37;;
11313;SDS011;5712;48.858;9.206;2023-02-28T09:55:53;8.33;;;6.03;;
11313;SDS011;5712;48.858;9.206;2023-02-28T09:58:26;10.67;;;7.20;;
11313;SDS011;5712;48.858;9.206;2023-02-28T10:01:02;9.17;;;7.40;;
11313;SDS011;5712;48.858;9.206;2023-02-28T10:03:33;9.57;;;7.13;;
11313;SDS011;5712;48.858;9.206;2023-02-28T10:06:07;10.27;;;7.73;;
11313;SDS011;5712;48.858;9.206;2023-02-28T10:08:40;10.37;;;7.20;;
11313;SDS011;5712;48.858;9.206;2023-02-28T10:11:18;9.07;;;7.20;;
11313;SDS011;5712;48.858;9.206;2023-02-28T10:13:52;11.38;;;8.73;;
11313;SDS011;5712;48.858;9.206;2023-02-28T10:16:28;9.63;;;7.50;;
11313;SDS011;5712;48.858;9.206;2023-02-28T10:19:01;11.50;;;7.07;;
11313;SDS011;5712;48.858;9.206;2023-02-28T10:21:34;10.23;;;7.57;;
11313;SDS011;5712;48.858;9.206;2023-02-28T10:24:05;10.47;;;7.80;;
11313;SDS011;5712;48.858;9.206;2023-02-28T10:26:43;10.20;;;7.83;;
11313;SDS011;5712;48.858;9.206;2023-02-28T10:29:11;10.63;;;7.70;;
11313;SDS011;5712;48.858;9.206;2023-02-28T10:31:38;10.33;;;8.03;;
11313;SDS011;5712;48.858;9.206;2023-02-28T10:34:05;10.43;;;8.03;;
11313;SDS011;5712;48.858;9.206;2023-02-28T10:36:33;10.57;;;7.30;;
11313;SDS011;5712;48.858;9.206;2023-02-28T10:39:00;11.20;;;8.10;;
11313;SDS011;5712;48.858;9.206;2023-02-28T10:41:27;12.17;;;8.57;;
11313;SDS011;5712;48.858;9.206;2023-02-28T10:44:12;10.90;;;7.70;;
11313;SDS011;5712;48.858;9.206;2023-02-28T10:46:41;10.27;;;8.00;;
11313;SDS011;5712;48.858;9.206;2023-02-28T10:49:12;11.00;;;8.13;;
11313;SDS011;5712;48.858;9.206;2023-02-28T10:51:45;12.33;;;7.97;;
11313;SDS011;5712;48.858;9.206;2023-02-28T10:54:22;12.43;;;8.13;;
11313;SDS011;5712;48.858;9.206;2023-02-28T10:57:15;9.70;;;7.47;;
11313;SDS011;5712;48.858;9.206;2023-02-28T10:59:44;9.87;;;7.67;;
11313;SDS011;5712;48.858;9.206;2023-02-28T11:02:31;10.27;;;7.90;;
11313;SDS011;5712;48.858;9.206;2023-02-28T11:04:59;10.47;;;7.90;;
11313;SDS011;5712;48.858;9.206;2023-02-28T11:07:27;9.97;;;7.87;;
11313;SDS011;5712;48.858;9.206;2023-02-28T11:09:54;11.50;;;7.53;;
11313;SDS011;5712;48.858;9.206;2023-02-28T11:12:23;10.73;;;7.73;;
11313;SDS011;5712;48.858;9.206;2023-02-28T11:14:53;10.43;;;7.47;;
11313;SDS011;5712;48.858;9.206;2023-02-28T11:17:24;11.40;;;8.10;;
11313;SDS011;5712;48.858;9.206;2023-02-28T11:19:53;11.18;;;8.65;;
11313;SDS011;5712;48.858;9.206;2023-02-28T11:22:23;11.33;;;8.07;;
11313;SDS011;5712;48.858;9.206;2023-02-28T11:24:55;9.13;;;7.53;;
11313;SDS011;5712;48.858;9.206;2023-02-28T11:27:42;10.57;;;7.83;;
11313;SDS011;5712;48.858;9.206;2023-02-28T11:32:56;10.07;;;7.70;;
11313;SDS011;5712;48.858;9.206;2023-02-28T11:35:24;9.70;;;7.73;;
11313;SDS011;5712;48.858;9.206;2023-02-28T11:37:54;11.40;;;8.17;;
11313;SDS011;5712;48.858;9.206;2023-02-28T11:40:24;10.87;;;8.27;;
11313;SDS011;5712;48.858;9.206;2023-02-28T11:42:59;9.23;;;7.87;;
11313;SDS011;5712;48.858;9.206;2023-02-28T11:45:37;11.23;;;8.40;;
11313;SDS011;5712;48.858;9.206;2023-02-28T11:48:12;12.20;;;7.27;;
11313;SDS011;5712;48.858;9.206;2023-02-28T11:50:53;10.87;;;7.77;;
11313;SDS011;5712;48.858;9.206;2023-02-28T11:53:32;11.20;;;7.70;;
11313;SDS011;5712;48.858;9.206;2023-02-28T11:56:13;10.43;;;7.33;;
11313;SDS011;5712;48.858;9.206;2023-02-28T11:58:51;7.87;;;6.93;;
11313;SDS011;5712;48.858;9.206;2023-02-28T12:01:36;10.63;;;8.23;;
11313;SDS011;5712;48.858;9.206;2023-02-28T12:04:14;9.33;;;7.67;;
11313;SDS011;5712;48.858;9.206;2023-02-28T12:06:52;10.37;;;8.07;;
11313;SDS011;5712;48.858;9.206;2023-02-28T12:09:34;12.37;;;8.10;;
11313;SDS011;5712;48.858;9.206;2023-02-28T12:12:12;10.73;;;8.43;;
11313;SDS011;5712;48.858;9.206;2023-02-28T12:14:50;10.53;;;7.90;;
11313;SDS011;5712;48.858;9.206;2023-02-28T12:17:28;10.10;;;7.10;;
11313;SDS011;5712;48.858;9.206;2023-02-28T12:20:06;9.20;;;6.90;;
11313;SDS011;5712;48.858;9.206;2023-02-28T12:22:44;11.60;;;7.73;;
11313;SDS011;5712;48.858;9.206;2023-02-28T12:28:18;11.07;;;7.73;;
11313;SDS011;5712;48.858;9.206;2023-02-28T12:30:49;10.40;;;7.93;;
11313;SDS011;5712;48.858;9.206;2023-02-28T12:33:21;9.27;;;7.30;;
11313;SDS011;5712;48.858;9.206;2023-02-28T12:35:52;9.63;;;7.40;;
11313;SDS011;5712;48.858;9.206;2023-02-28T12:38:22;9.70;;;7.20;;
11313;SDS011;5712;48.858;9.206;2023-02-28T12:40:53;8.47;;;7.17;;
11313;SDS011;5712;48.858;9.206;2023-02-28T12:43:25;9.53;;;7.57;;
11313;SDS011;5712;48.858;9.206;2023-02-28T12:45:56;9.10;;;7.13;;
11313;SDS011;5712;48.858;9.206;2023-02-28T12:48:29;9.77;;;7.30;;
11313;SDS011;5712;48.858;9.206;2023-02-28T12:50:59;10.13;;;7.30;;
11313;SDS011;5712;48.858;9.206;2023-02-28T12:53:28;11.03;;;7.50;;
11313;SDS011;5712;48.858;9.206;2023-02-28T12:56:05;8.60;;;7.63;;
11313;SDS011;5712;48.858;9.206;2023-02-28T12:58:41;9.47;;;7.23;;
11313;SDS011;5712;48.858;9.206;2023-02-28T13:01:22;8.80;;;7.17;;
11313;SDS011;5712;48.858;9.206;2023-02-28T13:04:32;7.80;;;6.73;;
11313;SDS011;5712;48.858;9.206;2023-02-28T13:10:38;9.93;;;7.27;;
11313;SDS011;5712;48.858;9.206;2023-02-28T13:13:11;9.47;;;7.27;;
11313;SDS011;5712;48.858;9.206;2023-02-28T13:15:42;9.60;;;7.07;;
11313;SDS011;5712;48.858;9.206;2023-02-28T13:18:27;9.17;;;6.70;;
11313;SDS011;5712;48.858;9.206;2023-02-28T13:20:56;8.37;;;6.87;;
11313;SDS011;5712;48.858;9.206;2023-02-28T13:26:32;11.63;;;6.60;;
11313;SDS011;5712;48.858;9.206;2023-02-28T13:29:37;9.20;;;7.23;;
11313;SDS011;5712;48.858;9.206;2023-02-28T13:38:12;8.73;;;7.10;;
11313;SDS011;5712;48.858;9.206;2023-02-28T13:40:42;8.70;;;7.00;;
11313;SDS011;5712;48.858;9.206;2023-02-28T13:43:08;9.23;;;6.57;;
11313;SDS011;5712;48.858;9.206;2023-02-28T13:45:35;8.13;;;6.90;;
11313;SDS011;5712;48.858;9.206;2023-02-28T13:48:05;8.57;;;6.90;;
11313;SDS011;5712;48.858;9.206;2023-02-28T13:50:42;10.27;;;7.30;;
11313;SDS011;5712;48.858;9.206;2023-02-28T13:59:12;9.00;;;6.63;;
11313;SDS011;5712;48.858;9.206;2023-02-28T14:01:51;10.60;;;7.37;;
11313;SDS011;5712;48.858;9.206;2023-02-28T14:07:27;10.73;;;7.50;;
11313;SDS011;5712;48.858;9.206;2023-02-28T14:09:58;10.40;;;7.90;;
11313;SDS011;5712;48.858;9.206;2023-02-28T14:18:17;8.80;;;7.03;;
11313;SDS011;5712;48.858;9.206;2023-02-28T14:20:59;8.73;;;7.00;;
11313;SDS011;5712;48.858;9.206;2023-02-28T14:26:48;11.23;;;6.97;;
11313;SDS011;5712;48.858;9.206;2023-02-28T14:29:42;9.48;;;7.88;;
11313;SDS011;5712;48.858;9.206;2023-02-28T14:32:26;9.03;;;7.07;;
11313;SDS011;5712;48.858;9.206;2023-02-28T14:34:59;11.23;;;7.30;;
11313;SDS011;5712;48.858;9.206;2023-02-28T14:37:33;8.97;;;7.27;;
11313;SDS011;5712;48.858;9.206;2023-02-28T14:40:11;9.40;;;7.20;;
11313;SDS011;5712;48.858;9.206;2023-02-28T14:42:45;8.97;;;7.13;;
11313;SDS011;5712;48.858;9.206;2023-02-28T14:45:17;8.50;;;6.40;;
11313;SDS011;5712;48.858;9.206;2023-02-28T14:47:45;11.13;;;7.30;;
11313;SDS011;5712;48.858;9.206;2023-02-28T14:50:17;8.40;;;7.03;;
11313;SDS011;5712;48.858;9.206;2023-02-28T14:52:46;8.03;;;6.90;;
11313;SDS011;5712;48.858;9.206;2023-02-28T14:55:14;9.27;;;7.27;;
11313;SDS011;5712;48.858;9.206;2023-02-28T14:57:50;9.27;;;7.27;;
11313;SDS011;5712;48.858;9.206;2023-02-28T15:00:21;10.23;;;7.07;;
11313;SDS011;5712;48.858;9.206;2023-02-28T15:02:49;11.33;;;7.77;;
11313;SDS011;5712;48.858;9.206;2023-02-28T15:05:25;10.47;;;7.20;;
11313;SDS011;5712;48.858;9.206;2023-02-28T15:08:03;10.40;;;7.70;;
11313;SDS011;5712;48.858;9.206;2023-02-28T15:10:32;9.93;;;6.93;;
11313;SDS011;5712;48.858;9.206;2023-02-28T15:12:59;9.27;;;7.23;;
11313;SDS011;5712;48.858;9.206;2023-02-28T15:15:33;9.20;;;7.47;;
11313;SDS011;5712;48.858;9.206;2023-02-28T15:18:07;9.57;;;6.97;;
11313;SDS011;5712;48.858;9.206;2023-02-28T15:20:39;8.77;;;7.17;;
11313;SDS011;5712;48.858;9.206;2023-02-28T15:23:09;10.73;;;8.07;;
11313;SDS011;5712;48.858;9.206;2023-02-28T15:25:37;10.10;;;7.93;;
11313;SDS011;5712;48.858;9.206;2023-02-28T15:28:04;10.07;;;8.82;;
11313;SDS011;5712;48.858;9.206;2023-02-28T15:30:30;8.93;;;7.20;;
11313;SDS011;5712;48.858;9.206;2023-02-28T15:33:01;10.20;;;7.40;;
11313;SDS011;5712;48.858;9.206;2023-02-28T15:35:31;9.20;;;6.97;;
11313;SDS011;5712;48.858;9.206;2023-02-28T15:38:00;8.97;;;7.13;;
11313;SDS011;5712;48.858;9.206;2023-02-28T15:40:30;8.90;;;7.50;;
11313;SDS011;5712;48.858;9.206;2023-02-28T15:42:59;9.40;;;7.67;;
11313;SDS011;5712;48.858;9.206;2023-02-28T15:45:34;9.30;;;7.30;;
11313;SDS011;5712;48.858;9.206;2023-02-28T15:48:06;11.63;;;8.07;;
11313;SDS011;5712;48.858;9.206;2023-02-28T15:50:41;10.20;;;7.93;;
11313;SDS011;5712;48.858;9.206;2023-02-28T15:53:12;9.63;;;7.50;;
11313;SDS011;5712;48.858;9.206;2023-02-28T15:55:42;10.40;;;7.07;;
11313;SDS011;5712;48.858;9.206;2023-02-28T15:58:10;11.60;;;8.47;;
11313;SDS011;5712;48.858;9.206;2023-02-28T16:00:38;10.67;;;8.10;;
11313;SDS011;5712;48.858;9.206;2023-02-28T16:08:34;11.07;;;8.00;;